Latest Weather Observations for Ben Nevis

IDV60801

Issued at 10:02 pm EST Monday 26 September 2016 (issued every 30 minutes, with the page automatically refreshed every 10 minutes)

About weather observations | Map of weather stations | Latest weather observations for VIC | Other Formats
Station Details ID: 079101 Name: BEN NEVIS Lat: -37.23 Lon: 143.20 Height: 875.0 m
Data from the previous 72 hours. | See also: Recent months at Ben Nevis
Date/Time
EST
Temp
°C
App
Temp
°C
Dew
Point
°C
Rel
Hum
%
Delta-T
°C
Wind Press
QNH
hPa
Press
MSL
hPa
Rain since
9am
mm
Dir  Spd
km/h
Gust
km/h
Spd
kts
Gust
kts
26/10:00pm 2.9 -0.7 2.8 99 0.0 WNW 11 20 6 11 - - 6.6
26/09:30pm 2.9 -0.7 2.8 99 0.0 WNW 11 20 6 11 - - 6.4
26/09:00pm 2.8 -0.5 2.7 99 0.0 WNW 9 17 5 9 - - 6.4
26/08:30pm 2.5 -0.4 2.4 99 0.0 WNW 7 15 4 8 - - 6.4
26/08:00pm 2.5 -2.9 2.4 99 0.0 W 20 30 11 16 - - 6.4
26/07:30pm 2.8 -0.5 2.7 99 0.0 NNW 9 15 5 8 - - 6.4
26/07:00pm 2.9 -2.2 2.8 99 0.0 W 19 33 10 18 - - 6.4
26/06:32pm 3.4 -3.7 3.3 99 0.0 WSW 30 50 16 27 - - 5.4
26/06:30pm 3.6 -3.1 3.5 99 0.0 WSW 28 44 15 24 - - 5.4
26/06:24pm 3.7 -3.4 3.6 99 0.0 WSW 30 48 16 26 - - 5.4
26/06:15pm 4.1 -1.8 4.0 99 0.0 WSW 24 48 13 26 - - 4.8
26/06:00pm 5.6 1.7 5.5 99 0.0 W 15 28 8 15 - - 3.4
26/05:30pm 5.7 3.0 5.6 99 0.0 N 9 20 5 11 - - 3.4
26/05:00pm 5.9 2.0 5.5 97 0.2 N 15 28 8 15 - - 3.2
26/04:30pm 6.5 3.5 5.9 96 0.3 N 11 20 6 11 - - 2.2
26/04:00pm 5.9 2.8 5.5 97 0.2 N 11 17 6 9 - - 2.2
26/03:30pm 6.4 2.0 4.7 89 0.8 N 17 35 9 19 - - 1.8
26/03:00pm 7.6 3.8 5.9 89 0.8 N 15 26 8 14 - - 1.4
26/02:30pm 6.9 4.3 6.0 94 0.4 NNW 9 20 5 11 - - 1.4
26/02:00pm 8.7 4.4 3.5 70 2.4 NNW 15 28 8 15 - - 0.0
26/01:30pm 8.5 4.2 3.4 70 2.3 N 15 28 8 15 - - 0.0
26/01:00pm 9.8 6.1 4.6 70 2.4 NNW 13 30 7 16 - - 0.0
26/12:30pm 9.5 5.7 5.9 78 1.7 N 15 26 8 14 - - 0.0
26/12:00pm 8.3 4.6 4.5 77 1.8 N 13 24 7 13 - - 0.0
26/11:30am 8.3 5.2 5.4 82 1.4 N 11 20 6 11 - - 0.0
26/11:00am 7.4 4.1 4.5 82 1.3 NNW 11 20 6 11 - - 0.0
26/10:30am 6.9 4.4 4.7 86 1.0 NNW 7 17 4 9 - - 0.0
26/10:00am 7.8 4.1 4.7 81 1.4 NNW 13 28 7 15 - - 0.0
26/09:30am 6.7 3.8 4.7 87 0.9 NNW 9 17 5 9 - - 0.0
26/09:00am 7.0 3.9 5.6 91 0.7 NNW 11 24 6 13 - - 0.2
26/08:30am 6.1 3.0 5.5 96 0.3 NNW 11 20 6 11 - - 0.2
26/08:00am 5.2 2.4 5.1 99 0.0 NNW 9 15 5 8 - - 0.2
26/07:30am 4.1 0.7 4.0 99 0.0 NNW 11 17 6 9 - - 0.2
26/07:00am 3.7 0.6 3.6 99 0.0 NNW 9 15 5 8 - - 0.2
26/06:30am 3.5 0.4 3.4 99 0.0 NW 9 20 5 11 - - 0.2
26/06:00am 3.4 0.2 3.3 99 0.0 WNW 9 19 5 10 - - 0.2
26/05:30am 3.5 0.4 3.4 99 0.0 WNW 9 19 5 10 - - 0.2
26/05:00am 3.5 0.7 3.4 99 0.0 WNW 7 17 4 9 - - 0.2
26/04:30am 3.9 1.2 3.8 99 0.0 NW 7 11 4 6 - - 0.2
26/04:00am 3.6 0.9 3.5 99 0.0 NW 7 17 4 9 - - 0.2
26/03:30am 3.4 0.6 3.1 98 0.1 NW 7 13 4 7 - - 0.0
26/03:00am 3.2 0.3 2.8 97 0.2 W 7 11 4 6 - - 0.0
26/02:30am 3.7 0.9 3.4 98 0.1 WNW 7 11 4 6 - - 0.0
26/02:00am 4.2 1.5 3.9 98 0.1 WNW 7 13 4 7 - - 0.0
26/01:30am 4.2 1.2 3.9 98 0.1 W 9 19 5 10 - - 0.0
26/01:00am 4.6 2.2 4.3 98 0.1 NW 6 11 3 6 - - 0.0
26/12:30am 4.5 2.1 4.1 97 0.2 W 6 11 3 6 - - 0.0
26/12:00am 4.6 2.0 4.2 97 0.2 WSW 7 11 4 6 - - 0.0
 
Date/Time
EST
Temp
°C
App
Temp
°C
Dew
Point
°C
Rel
Hum
%
Delta-T
°C
Wind Press
QNH
hPa
Press
MSL
hPa
Rain since
9am
mm
Dir  Spd
km/h
Gust
km/h
Spd
kts
Gust
kts
25/11:30pm 4.9 1.9 4.3 96 0.3 SW 9 15 5 8 - - 0.0
25/11:00pm 5.1 3.1 4.2 94 0.4 NNW 4 7 2 4 - - 0.0
25/10:30pm 5.3 3.5 3.6 89 0.8 W 2 6 1 3 - - 0.0
25/10:00pm 5.2 3.7 3.1 86 0.9 CALM 0 0 0 0 - - 0.0
25/09:30pm 5.3 2.9 2.3 81 1.3 NNW 4 11 2 6 - - 0.0
25/09:00pm 5.7 3.0 2.7 81 1.3 W 6 11 3 6 - - 0.0
25/08:30pm 5.8 2.5 2.6 80 1.4 W 9 13 5 7 - - 0.0
25/08:00pm 5.7 3.1 3.0 83 1.2 W 6 11 3 6 - - 0.0
25/07:30pm 5.7 2.6 3.7 87 0.9 WSW 9 15 5 8 - - 0.0
25/07:00pm 5.7 2.7 3.9 88 0.8 SW 9 13 5 7 - - 0.0
25/06:30pm 5.8 2.0 3.8 87 0.9 SW 13 20 7 11 - - 0.0
25/06:00pm 6.4 3.4 3.9 84 1.1 SW 9 13 5 7 - - 0.0
25/05:30pm 6.8 3.4 3.8 81 1.4 SW 11 19 6 10 - - 0.0
25/05:00pm 7.4 4.7 3.5 76 1.8 SW 7 13 4 7 - - 0.0
25/04:30pm 7.9 3.8 2.4 68 2.4 WSW 13 20 7 11 - - 0.0
25/04:00pm 9.9 5.9 3.0 62 3.1 WSW 13 20 7 11 - - 0.0
25/03:30pm 10.5 5.7 2.4 57 3.6 WSW 17 32 9 17 - - 0.0
25/03:00pm 10.7 6.3 2.8 58 3.6 WSW 15 26 8 14 - - 0.0
25/02:30pm 9.6 4.7 2.2 60 3.3 WSW 17 33 9 18 - - 0.0
25/02:00pm 9.6 4.9 2.9 63 3.0 WSW 17 28 9 15 - - 0.0
25/01:30pm 7.8 2.5 1.6 65 2.7 WSW 19 30 10 16 - - 0.0
25/01:00pm 8.1 3.3 2.8 69 2.4 WSW 17 26 9 14 - - 0.0
25/12:30pm 8.2 3.1 4.0 75 1.9 WSW 20 32 11 17 - - 0.0
25/12:00pm 7.3 2.0 3.0 74 1.9 SW 20 35 11 19 - - 0.0
25/11:30am 7.2 1.8 2.5 72 2.1 WSW 20 33 11 18 - - 0.0
25/11:00am 7.5 2.2 2.8 72 2.1 WSW 20 39 11 21 - - 0.0
25/10:30am 6.1 0.8 3.1 81 1.3 SW 20 35 11 19 - - 0.0
25/10:00am 5.5 0.4 2.8 83 1.2 WSW 19 30 10 16 - - 0.0
25/09:30am 4.2 -1.2 2.6 89 0.7 SW 20 32 11 17 - - 0.0
25/09:00am 4.1 -0.6 3.1 93 0.4 WSW 17 26 9 14 - - 11.0
25/08:30am 3.6 -2.1 3.0 96 0.3 WSW 22 35 12 19 - - 11.0
25/08:00am 2.8 -3.3 2.5 98 0.1 WSW 24 35 13 19 - - 11.0
25/07:30am 2.4 -3.8 2.3 99 0.0 WSW 24 37 13 20 - - 11.0
25/07:00am 1.9 -5.5 1.8 99 0.0 WSW 30 39 16 21 - - 11.0
25/06:30am 1.5 -5.6 1.4 99 0.0 WSW 28 43 15 23 - - 11.0
25/06:00am 1.3 -5.4 1.2 99 0.0 WSW 26 37 14 20 - - 11.0
25/05:31am 1.4 -6.5 1.3 99 0.0 SW 32 50 17 27 - - 11.0
25/05:30am 1.4 -6.5 1.3 99 0.0 SW 32 46 17 25 - - 11.0
25/05:00am 1.4 -6.7 1.3 99 0.0 WSW 33 52 18 28 - - 11.0
25/04:30am 1.7 -5.7 1.6 99 0.0 SW 30 44 16 24 - - 11.0
25/04:00am 2.1 -6.2 2.0 99 0.0 WSW 35 50 19 27 - - 11.0
25/03:30am 2.9 -4.3 2.8 99 0.0 SW 30 50 16 27 - - 11.0
25/03:00am 3.7 -2.6 3.6 99 0.0 SW 26 44 14 24 - - 11.0
25/02:30am 4.2 -1.7 4.1 99 0.0 SW 24 35 13 19 - - 11.0
25/02:00am 4.1 -2.5 4.0 99 0.0 SW 28 43 15 23 - - 11.0
25/01:30am 4.4 -2.9 4.3 99 0.0 SW 32 44 17 24 - - 10.8
25/01:00am 4.5 -2.4 4.4 99 0.0 SW 30 46 16 25 - - 10.8
25/12:30am 4.9 -2.3 4.8 99 0.0 SW 32 46 17 25 - - 10.8
25/12:09am 5.0 -1.8 4.9 99 0.0 SW 30 48 16 26 - - 10.8
25/12:00am 5.1 -1.7 5.0 99 0.0 SW 30 46 16 25 - - 10.8
 
Date/Time
EST
Temp
°C
App
Temp
°C
Dew
Point
°C
Rel
Hum
%
Delta-T
°C
Wind Press
QNH
hPa
Press
MSL
hPa
Rain since
9am
mm
Dir  Spd
km/h
Gust
km/h
Spd
kts
Gust
kts
24/11:30pm 5.1 -1.7 5.0 99 0.0 SW 30 43 16 23 - - 10.8
24/11:01pm 5.5 -0.9 5.4 99 0.0 SW 28 46 15 25 - - 10.8
24/11:00pm 5.5 -0.5 5.4 99 0.0 SW 26 44 14 24 - - 10.8
24/10:30pm 6.2 -0.4 6.1 99 0.0 SW 30 41 16 22 - - 10.8
24/10:00pm 6.5 1.1 6.4 99 0.0 SW 24 35 13 19 - - 10.0
24/09:30pm 8.0 5.4 7.9 99 0.0 NNW 11 24 6 13 - - 7.8
24/09:00pm 7.8 5.2 7.7 99 0.0 NNW 11 24 6 13 - - 7.6
24/08:30pm 8.0 4.3 7.9 99 0.0 NNW 17 28 9 15 - - 4.6
24/08:00pm 7.8 4.0 7.7 99 0.0 NNW 17 28 9 15 - - 2.8
24/07:30pm 7.6 3.4 7.5 99 0.0 N 19 35 10 19 - - 1.8
24/07:00pm 7.5 3.1 7.2 98 0.1 N 20 35 11 19 - - 0.6
24/06:30pm 7.6 3.2 7.3 98 0.1 N 20 35 11 19 - - 0.4
24/06:00pm 7.6 3.2 7.5 99 0.0 N 20 35 11 19 - - 0.4
24/05:30pm 7.6 3.4 7.5 99 0.0 N 19 32 10 17 - - 0.4
24/05:00pm 7.8 3.5 7.2 96 0.3 N 19 33 10 18 - - 0.4
24/04:30pm 8.8 4.3 6.9 88 0.9 N 20 35 11 19 - - 0.2
24/04:00pm 9.7 5.2 6.2 79 1.7 N 19 35 10 19 - - 0.2
24/03:30pm 10.1 5.7 6.6 79 1.7 N 19 33 10 18 - - 0.2
24/03:00pm 10.2 5.2 6.5 78 1.8 N 22 41 12 22 - - 0.2
24/02:30pm 10.1 5.0 5.9 75 2.0 N 22 37 12 20 - - 0.2
24/02:00pm 10.0 4.1 5.6 74 2.1 N 26 52 14 28 - - 0.2
24/01:30pm 10.9 6.2 5.9 71 2.4 N 20 37 11 20 - - 0.2
24/01:00pm 11.0 6.5 6.0 71 2.4 N 19 35 10 19 - - 0.2
24/12:30pm 10.8 6.1 5.3 69 2.6 N 19 35 10 19 - - 0.2
24/12:00pm 11.8 7.6 5.9 67 2.9 N 17 28 9 15 - - 0.2
24/11:30am 12.1 7.3 5.7 65 3.1 N 20 33 11 18 - - 0.2
24/11:00am 12.7 7.1 5.4 61 3.6 N 24 39 13 21 - - 0.2
24/10:30am 13.2 9.2 6.5 64 3.4 N 17 33 9 18 - - 0.2
24/10:00am 12.0 7.3 6.1 67 2.9 N 20 33 11 18 - - 0.0
24/09:30am 11.3 6.0 5.2 66 2.9 N 22 41 12 22 - - 0.0
24/09:00am 10.3 4.5 4.5 67 2.7 N 24 39 13 21 - - 0.0
24/08:30am 9.4 4.0 4.4 71 2.3 N 22 35 12 19 - - 0.0
24/08:00am 8.6 3.3 5.0 78 1.7 N 22 35 12 19 - - 0.0
24/07:30am 7.5 2.4 4.1 79 1.6 N 20 39 11 21 - - 0.0
24/07:00am 7.3 2.5 4.6 83 1.2 N 19 32 10 17 - - 0.0
24/06:30am 5.9 1.1 4.7 92 0.5 N 19 32 10 17 - - 0.0
24/06:00am 5.5 0.7 4.8 95 0.3 N 19 35 10 19 - - 0.0
24/05:30am 5.7 0.4 4.8 94 0.4 N 22 39 12 21 - - 0.0
24/05:00am 5.8 0.1 4.8 93 0.5 N 24 37 13 20 - - 0.0
24/04:30am 5.7 0.3 4.7 93 0.5 N 22 37 12 20 - - 0.0
24/04:00am 5.8 0.4 4.6 92 0.5 N 22 41 12 22 - - 0.0
24/03:30am 5.9 0.5 4.5 91 0.6 N 22 41 12 22 - - 0.0
24/03:00am 6.0 0.2 4.6 91 0.6 N 24 39 13 21 - - 0.0
24/02:30am 6.0 0.6 4.6 91 0.6 N 22 35 12 19 - - 0.0
24/02:00am 5.9 1.1 4.4 90 0.7 N 19 32 10 17 - - 0.0
24/01:30am 6.1 1.3 4.6 90 0.7 N 19 37 10 20 - - 0.0
24/01:00am 6.2 1.8 4.7 90 0.7 N 17 30 9 16 - - 0.0
24/12:30am 6.2 1.8 4.7 90 0.7 N 17 30 9 16 - - 0.0
24/12:00am 6.2 1.8 4.8 91 0.6 N 17 30 9 16 - - 0.0
 
Date/Time
EST
Temp
°C
App
Temp
°C
Dew
Point
°C
Rel
Hum
%
Delta-T
°C
Wind Press
QNH
hPa
Press
MSL
hPa
Rain since
9am
mm
Dir  Spd
km/h
Gust
km/h
Spd
kts
Gust
kts
23/11:30pm 6.2 1.4 4.8 91 0.6 N 19 28 10 15 - - 0.0
23/11:00pm 6.1 1.7 4.7 91 0.6 N 17 28 9 15 - - 0.0
23/10:30pm 6.4 2.0 4.6 88 0.8 N 17 26 9 14 - - 0.0

Other Formats:

Comma delimited format used in spreadsheet applications
http://www.bom.gov.au/fwo/IDV60801/IDV60801.94835.axf

JavaScript Object Notation format (JSON) in row-major order
http://www.bom.gov.au/fwo/IDV60801/IDV60801.94835.json